createdAt,value
2023-02-11T00:00:18.193Z,26.45
2023-02-11T00:00:50.091Z,27.50
2023-02-11T00:01:32.983Z,29.50
2023-02-11T00:02:05.579Z,27.30
2023-02-11T00:02:37.339Z,27.85
2023-02-11T00:03:09.902Z,29.52
2023-02-11T00:03:41.634Z,31.50
2023-02-11T00:04:13.386Z,31.15
2023-02-11T00:04:45.103Z,31.73
2023-02-11T00:05:16.748Z,31.00
2023-02-11T00:06:00.903Z,29.42
2023-02-11T00:06:33.806Z,28.35
2023-02-11T00:07:05.498Z,29.75
2023-02-11T00:07:37.541Z,30.83
2023-02-11T00:08:09.175Z,29.48
2023-02-11T00:08:40.754Z,29.77
2023-02-11T00:09:12.454Z,32.55
2023-02-11T00:09:44.029Z,31.15
2023-02-11T00:10:15.636Z,33.35
2023-02-11T00:10:52.229Z,31.92
2023-02-11T00:11:31.333Z,32.65
2023-02-11T00:12:03.040Z,30.92
2023-02-11T00:12:38.330Z,31.83
2023-02-11T00:13:09.908Z,31.27
2023-02-11T00:13:42.348Z,31.20
2023-02-11T00:14:14.090Z,29.80
2023-02-11T00:14:45.709Z,32.40
2023-02-11T00:15:17.465Z,33.42
2023-02-11T00:15:49.922Z,32.10
2023-02-11T00:16:21.743Z,30.92
2023-02-11T00:16:53.359Z,29.92
2023-02-11T00:17:24.988Z,28.95
2023-02-11T00:17:56.579Z,29.83
2023-02-11T00:18:28.180Z,27.00
2023-02-11T00:19:01.099Z,29.25
2023-02-11T00:19:32.757Z,29.08
2023-02-11T00:20:07.860Z,28.17
2023-02-11T00:20:40.620Z,27.10
2023-02-11T00:21:15.297Z,27.17
2023-02-11T00:21:46.899Z,27.80
2023-02-11T00:22:18.974Z,29.17
2023-02-11T00:22:50.591Z,32.72
2023-02-11T00:23:22.165Z,33.20
2023-02-11T00:23:55.020Z,34.65
2023-02-11T00:24:26.708Z,34.45
2023-02-11T00:24:58.271Z,35.33
2023-02-11T00:25:29.898Z,32.65
2023-02-11T00:26:01.690Z,30.23
2023-02-11T00:26:35.210Z,30.58
2023-02-11T00:27:06.795Z,30.20
2023-02-11T00:27:38.483Z,31.33
2023-02-11T00:28:11.072Z,31.77
2023-02-11T00:28:43.201Z,32.90
2023-02-11T00:29:15.066Z,30.85
2023-02-11T00:29:46.785Z,31.58
2023-02-11T00:30:18.509Z,31.15
2023-02-11T00:31:01.679Z,31.00
2023-02-11T00:31:34.066Z,30.25
2023-02-11T00:32:06.447Z,29.88
2023-02-11T00:32:38.061Z,30.67
2023-02-11T00:33:09.769Z,31.38
2023-02-11T00:33:42.037Z,30.35
2023-02-11T00:34:13.973Z,31.10
2023-02-11T00:34:45.609Z,29.55
2023-02-11T00:35:17.435Z,29.85
2023-02-11T00:35:49.540Z,28.30
2023-02-11T00:36:24.458Z,28.40
2023-02-11T00:36:56.044Z,28.33
2023-02-11T00:37:27.938Z,27.35
2023-02-11T00:37:59.581Z,28.40
2023-02-11T00:38:31.238Z,28.70
2023-02-11T00:39:03.774Z,26.95
2023-02-11T00:39:35.497Z,26.63
2023-02-11T00:40:07.620Z,27.48
2023-02-11T00:40:39.316Z,28.60
2023-02-11T00:41:13.202Z,27.30
2023-02-11T00:41:44.805Z,28.27
2023-02-11T00:42:17.171Z,26.77
2023-02-11T00:42:48.814Z,27.17
2023-02-11T00:43:20.396Z,28.75
2023-02-11T00:43:52.689Z,28.10
2023-02-11T00:44:24.602Z,27.05
2023-02-11T00:44:56.208Z,27.02
2023-02-11T00:45:28.865Z,26.88
2023-02-11T00:46:00.466Z,26.25
2023-02-11T00:46:32.209Z,28.83
2023-02-11T00:47:03.883Z,33.90
2023-02-11T00:47:35.993Z,40.60
2023-02-11T00:48:07.606Z,38.35
2023-02-11T00:48:39.435Z,37.08
2023-02-11T00:49:11.451Z,38.08
2023-02-11T00:49:43.213Z,34.97
2023-02-11T00:50:14.946Z,35.92
2023-02-11T00:50:46.885Z,36.88
2023-02-11T00:51:18.515Z,34.80
2023-02-11T00:51:50.139Z,35.00
2023-02-11T00:52:21.757Z,32.28
2023-02-11T00:52:53.320Z,32.65
2023-02-11T00:53:25.324Z,33.10
2023-02-11T00:53:57.020Z,34.60
2023-02-11T00:54:30.040Z,33.38
2023-02-11T00:55:01.879Z,31.05
2023-02-11T00:55:34.007Z,31.65
2023-02-11T00:56:06.690Z,32.47
2023-02-11T00:56:38.398Z,33.15
2023-02-11T00:57:10.027Z,33.85
2023-02-11T00:57:41.635Z,33.65
2023-02-11T00:58:13.282Z,33.42
2023-02-11T00:58:45.025Z,35.60
2023-02-11T00:59:16.626Z,34.30
2023-02-11T00:59:48.219Z,33.90
2023-02-11T01:00:20.291Z,33.63
2023-02-11T01:00:53.449Z,32.92
2023-02-11T01:01:25.240Z,32.30
2023-02-11T01:01:56.953Z,34.13
2023-02-11T01:02:28.679Z,32.60
2023-02-11T01:03:00.411Z,31.48
2023-02-11T01:03:32.217Z,31.35
2023-02-11T01:04:04.023Z,30.50
2023-02-11T01:04:35.677Z,30.83
2023-02-11T01:05:08.047Z,32.22
2023-02-11T01:05:39.713Z,30.40
2023-02-11T01:06:11.475Z,29.48
2023-02-11T01:06:43.073Z,30.20
2023-02-11T01:07:14.759Z,27.50
2023-02-11T01:07:46.762Z,28.15
2023-02-11T01:08:18.504Z,28.08
2023-02-11T01:08:50.234Z,26.15
2023-02-11T01:09:21.899Z,26.02
2023-02-11T01:09:53.986Z,27.15
2023-02-11T01:10:25.824Z,27.73
2023-02-11T01:11:07.628Z,27.88
2023-02-11T01:11:39.299Z,26.42
2023-02-11T01:12:10.920Z,26.35
2023-02-11T01:12:42.598Z,26.38
2023-02-11T01:13:14.219Z,27.20
2023-02-11T01:13:47.505Z,26.02
2023-02-11T01:14:19.166Z,27.45
2023-02-11T01:14:51.210Z,26.95
2023-02-11T01:15:22.944Z,25.05
2023-02-11T01:15:55.666Z,25.38
2023-02-11T01:16:27.476Z,24.17
2023-02-11T01:16:59.118Z,24.02
2023-02-11T01:17:30.825Z,24.80
2023-02-11T01:18:02.472Z,25.33
2023-02-11T01:18:34.229Z,24.60
2023-02-11T01:19:06.343Z,25.48
2023-02-11T01:19:38.790Z,26.30
2023-02-11T01:20:20.647Z,26.17
2023-02-11T01:20:53.683Z,24.30
2023-02-11T01:21:25.850Z,25.52
2023-02-11T01:21:57.532Z,26.98
2023-02-11T01:22:29.148Z,27.48
2023-02-11T01:23:00.796Z,26.40
2023-02-11T01:23:32.446Z,26.25
2023-02-11T01:24:04.169Z,26.20
2023-02-11T01:24:35.822Z,27.30
2023-02-11T01:25:08.380Z,26.50
2023-02-11T01:25:40.039Z,25.30
2023-02-11T01:26:11.761Z,27.15
2023-02-11T01:26:43.372Z,26.58
2023-02-11T01:27:15.043Z,26.23
2023-02-11T01:27:46.644Z,26.15
2023-02-11T01:28:21.927Z,26.73
2023-02-11T01:28:53.567Z,25.80
2023-02-11T01:29:25.515Z,26.48
2023-02-11T01:29:57.194Z,28.80
2023-02-11T01:30:28.860Z,29.95
2023-02-11T01:31:01.432Z,28.33
2023-02-11T01:31:33.300Z,27.10
2023-02-11T01:32:05.225Z,26.48
2023-02-11T01:32:36.887Z,26.83
2023-02-11T01:33:08.555Z,27.05
2023-02-11T01:33:40.304Z,28.83
2023-02-11T01:34:11.967Z,27.23
2023-02-11T01:34:43.655Z,29.58
2023-02-11T01:35:15.271Z,27.48
2023-02-11T01:35:47.647Z,26.90
2023-02-11T01:36:19.491Z,26.38
2023-02-11T01:36:51.116Z,26.80
2023-02-11T01:37:22.817Z,27.77
2023-02-11T01:37:54.435Z,27.90
2023-02-11T01:38:26.651Z,27.02
2023-02-11T01:38:58.425Z,26.70
2023-02-11T01:39:34.068Z,26.83
2023-02-11T01:40:08.056Z,26.17
2023-02-11T01:40:39.980Z,26.45
2023-02-11T01:41:14.623Z,26.58
2023-02-11T01:41:46.183Z,26.48
2023-02-11T01:42:20.170Z,26.75
2023-02-11T01:42:51.759Z,26.27
2023-02-11T01:43:24.698Z,27.67
2023-02-11T01:43:56.363Z,30.02
2023-02-11T01:44:35.500Z,29.95
2023-02-11T01:45:40.782Z,26.60
2023-02-11T01:46:34.120Z,23.17
2023-02-11T01:47:06.664Z,24.52
2023-02-11T01:47:38.258Z,23.70
2023-02-11T01:48:12.942Z,23.20
2023-02-11T01:48:47.853Z,23.00
2023-02-11T01:49:33.413Z,24.80
2023-02-11T01:50:05.265Z,24.75
2023-02-11T01:50:38.386Z,23.27
2023-02-11T01:51:20.572Z,22.92
2023-02-11T01:52:10.807Z,24.17
2023-02-11T01:52:43.209Z,23.83
2023-02-11T01:53:34.091Z,24.10
2023-02-11T01:54:25.899Z,24.27
2023-02-11T01:55:19.622Z,24.27
2023-02-11T01:56:11.834Z,23.70
2023-02-11T01:57:07.622Z,23.33
2023-02-11T01:57:43.372Z,22.25
2023-02-11T01:58:15.094Z,24.95
2023-02-11T01:58:48.070Z,26.25
2023-02-11T01:59:36.642Z,27.17
2023-02-11T02:00:11.945Z,26.05
2023-02-11T02:00:44.100Z,26.55
2023-02-11T02:01:19.391Z,26.55
2023-02-11T02:01:57.341Z,26.95
2023-02-11T02:02:52.588Z,28.20
2023-02-11T02:03:24.982Z,27.20
2023-02-11T02:04:01.798Z,29.05
2023-02-11T02:04:42.302Z,30.05
2023-02-11T02:05:31.588Z,29.83
2023-02-11T02:06:28.626Z,27.85
2023-02-11T02:07:06.575Z,29.88
2023-02-11T02:07:48.360Z,29.40
2023-02-11T02:08:27.905Z,28.65
2023-02-11T02:09:06.947Z,30.05
2023-02-11T02:09:43.247Z,29.55
2023-02-11T02:10:19.157Z,29.45
2023-02-11T02:10:56.412Z,29.75
2023-02-11T02:11:28.344Z,28.33
2023-02-11T02:12:00.238Z,30.58
2023-02-11T02:12:31.886Z,29.85
2023-02-11T02:13:03.820Z,32.20
2023-02-11T02:13:36.068Z,31.02
2023-02-11T02:14:07.765Z,30.35
2023-02-11T02:14:41.419Z,30.83
2023-02-11T02:15:32.025Z,27.42
2023-02-11T02:16:09.800Z,26.42
2023-02-11T02:16:41.836Z,23.08
2023-02-11T02:17:29.136Z,25.45
2023-02-11T02:18:22.972Z,24.23
2023-02-11T02:19:12.243Z,26.77
2023-02-11T02:20:25.774Z,27.20
2023-02-11T02:21:19.004Z,25.35
2023-02-11T02:22:22.584Z,25.85
2023-02-11T02:23:11.695Z,27.92
2023-02-11T02:24:22.164Z,26.88
2023-02-11T02:25:01.076Z,28.45
2023-02-11T02:25:44.741Z,27.48
2023-02-11T02:26:37.614Z,29.55
2023-02-11T02:27:25.056Z,28.63
2023-02-11T02:28:18.049Z,28.33
2023-02-11T02:28:58.222Z,29.20
2023-02-11T02:29:56.938Z,30.02
2023-02-11T02:30:46.294Z,26.40
2023-02-11T02:31:23.812Z,28.75
2023-02-11T02:32:10.820Z,29.35
2023-02-11T02:32:45.223Z,29.13
2023-02-11T02:33:34.132Z,29.60
2023-02-11T02:34:07.948Z,29.80
2023-02-11T02:35:04.937Z,31.35
2023-02-11T02:36:09.427Z,29.48
2023-02-11T02:36:52.041Z,32.05
2023-02-11T02:38:01.632Z,30.98
2023-02-11T02:38:57.967Z,28.58
2023-02-11T02:39:33.545Z,29.75
2023-02-11T02:40:11.794Z,30.02
2023-02-11T02:40:48.722Z,30.90
2023-02-11T02:41:25.090Z,31.30
2023-02-11T02:41:57.642Z,31.58
2023-02-11T02:42:29.442Z,32.15
2023-02-11T02:43:02.995Z,30.13
2023-02-11T02:43:37.204Z,30.50
2023-02-11T02:44:09.353Z,29.20
2023-02-11T02:44:40.979Z,29.65
2023-02-11T02:45:13.814Z,30.60
2023-02-11T02:45:45.394Z,30.88
2023-02-11T02:46:24.084Z,30.42
2023-02-11T02:46:55.829Z,30.70
2023-02-11T02:47:27.484Z,31.67
2023-02-11T02:47:59.089Z,30.88
2023-02-11T02:48:37.491Z,31.05
2023-02-11T02:49:16.557Z,30.27
2023-02-11T02:49:48.136Z,30.70
2023-02-11T02:50:30.138Z,30.83
2023-02-11T02:51:43.198Z,32.13
2023-02-11T02:52:23.323Z,29.67
2023-02-11T02:53:12.651Z,31.70
2023-02-11T02:54:08.299Z,29.23
2023-02-11T02:55:02.864Z,29.08
2023-02-11T02:56:01.661Z,29.58
2023-02-11T02:56:55.873Z,29.08
2023-02-11T02:57:36.575Z,29.10
2023-02-11T02:58:17.443Z,30.95
2023-02-11T02:59:02.476Z,31.27
2023-02-11T02:59:46.177Z,32.97
2023-02-11T03:00:23.781Z,32.25
2023-02-11T03:01:33.245Z,33.63
2023-02-11T03:02:26.680Z,30.30
2023-02-11T03:03:10.273Z,30.17
2023-02-11T03:04:10.824Z,29.60
2023-02-11T03:05:02.037Z,28.75
2023-02-11T03:05:47.073Z,29.15
2023-02-11T03:06:38.854Z,29.77
2023-02-11T03:07:48.627Z,30.15
2023-02-11T03:08:52.133Z,28.55
2023-02-11T03:10:01.959Z,29.27
2023-02-11T03:10:38.438Z,28.50
2023-02-11T03:11:12.014Z,29.63
2023-02-11T03:11:43.745Z,30.15
2023-02-11T03:12:16.633Z,33.33
2023-02-11T03:12:49.733Z,33.33
2023-02-11T03:13:27.321Z,34.22
2023-02-11T03:14:03.250Z,33.92
2023-02-11T03:14:36.287Z,33.28
2023-02-11T03:15:09.487Z,32.70
2023-02-11T03:15:50.624Z,32.92
2023-02-11T03:16:26.863Z,30.08
2023-02-11T03:17:04.350Z,31.27
2023-02-11T03:17:39.222Z,32.85
2023-02-11T03:18:15.649Z,33.17
2023-02-11T03:18:56.512Z,32.53
2023-02-11T03:19:37.604Z,32.20
2023-02-11T03:20:13.069Z,32.25
2023-02-11T03:20:48.875Z,32.22
2023-02-11T03:21:21.279Z,32.35
2023-02-11T03:21:54.402Z,32.17
2023-02-11T03:22:33.452Z,33.88
2023-02-11T03:23:23.792Z,32.25
2023-02-11T03:24:00.572Z,31.30
2023-02-11T03:24:37.113Z,32.33
2023-02-11T03:25:09.692Z,32.85
2023-02-11T03:25:58.683Z,32.60
2023-02-11T03:26:43.234Z,32.05
2023-02-11T03:27:47.243Z,30.13
2023-02-11T03:28:35.292Z,28.77
2023-02-11T03:29:27.231Z,31.08
2023-02-11T03:30:04.188Z,28.65
2023-02-11T03:30:44.064Z,29.88
2023-02-11T03:31:36.969Z,29.45
2023-02-11T03:32:25.228Z,30.73
2023-02-11T03:33:26.538Z,29.15
2023-02-11T03:34:16.399Z,29.33
2023-02-11T03:34:51.072Z,29.63
2023-02-11T03:35:32.872Z,28.70
2023-02-11T03:36:09.067Z,30.63
2023-02-11T03:36:59.925Z,31.05
2023-02-11T03:37:54.574Z,30.67
2023-02-11T03:38:32.462Z,29.67
2023-02-11T03:39:05.713Z,30.95
2023-02-11T03:39:50.550Z,31.48
2023-02-11T03:40:40.121Z,31.83
2023-02-11T03:41:15.102Z,31.95
2023-02-11T03:41:49.010Z,31.10
2023-02-11T03:42:24.664Z,31.23
2023-02-11T03:43:21.438Z,30.92
2023-02-11T03:43:58.393Z,29.92
2023-02-11T03:44:36.633Z,29.85
2023-02-11T03:45:11.307Z,30.52
2023-02-11T03:45:44.545Z,32.08
2023-02-11T03:46:19.687Z,31.73
2023-02-11T03:46:52.337Z,32.67
2023-02-11T03:47:27.584Z,32.97
2023-02-11T03:48:27.993Z,31.13
2023-02-11T03:49:04.997Z,30.25
2023-02-11T03:49:39.741Z,31.70
2023-02-11T03:50:14.730Z,32.88
2023-02-11T03:50:48.631Z,31.52
2023-02-11T03:51:22.163Z,33.17
2023-02-11T03:51:55.903Z,32.70
2023-02-11T03:52:28.203Z,33.95
2023-02-11T03:53:02.820Z,32.65
2023-02-11T03:53:34.882Z,32.78
2023-02-11T03:54:13.100Z,32.88
2023-02-11T03:54:47.337Z,32.03
2023-02-11T03:55:21.190Z,31.98
2023-02-11T03:55:56.772Z,31.65
2023-02-11T03:56:32.416Z,31.92
2023-02-11T03:57:04.558Z,31.67
2023-02-11T03:57:36.405Z,32.85
2023-02-11T03:58:09.059Z,31.20
2023-02-11T03:58:40.804Z,33.08
2023-02-11T03:59:12.536Z,31.58
2023-02-11T03:59:59.047Z,32.58
2023-02-11T04:00:32.689Z,30.95
2023-02-11T04:01:05.286Z,31.98
2023-02-11T04:01:36.958Z,32.05
2023-02-11T04:02:08.546Z,34.17
2023-02-11T04:02:41.617Z,32.92
2023-02-11T04:03:13.719Z,33.80
2023-02-11T04:03:45.355Z,33.25
2023-02-11T04:04:17.376Z,32.47
2023-02-11T04:04:49.006Z,34.58
2023-02-11T04:05:21.009Z,35.33
2023-02-11T04:05:52.734Z,34.85
2023-02-11T04:06:24.520Z,34.42
2023-02-11T04:06:56.101Z,34.30
2023-02-11T04:07:27.846Z,33.75
2023-02-11T04:07:59.462Z,34.10
2023-02-11T04:08:32.059Z,33.60
2023-02-11T04:09:03.860Z,34.72
2023-02-11T04:09:36.877Z,33.28
2023-02-11T04:10:09.083Z,33.53
2023-02-11T04:10:40.821Z,33.45
2023-02-11T04:11:12.416Z,34.13
2023-02-11T04:11:44.043Z,33.53
2023-02-11T04:12:15.663Z,33.22
2023-02-11T04:12:47.290Z,33.35
2023-02-11T04:13:18.868Z,33.53
2023-02-11T04:13:50.577Z,32.50
2023-02-11T04:14:22.143Z,32.97
2023-02-11T04:14:53.761Z,33.08
2023-02-11T04:15:25.693Z,34.53
2023-02-11T04:15:57.414Z,35.67
2023-02-11T04:16:30.909Z,38.17
2023-02-11T04:17:02.877Z,35.55
2023-02-11T04:17:34.928Z,34.50
2023-02-11T04:18:06.817Z,35.42
2023-02-11T04:18:38.455Z,35.17
2023-02-11T04:19:10.155Z,33.95
2023-02-11T04:19:42.014Z,34.90
2023-02-11T04:20:13.786Z,33.55
2023-02-11T04:20:45.510Z,34.97
2023-02-11T04:21:17.140Z,34.95
2023-02-11T04:21:48.834Z,34.15
2023-02-11T04:22:20.461Z,32.75
2023-02-11T04:22:52.072Z,34.30
2023-02-11T04:23:23.678Z,34.67
2023-02-11T04:23:55.251Z,32.85
2023-02-11T04:24:26.996Z,32.05
2023-02-11T04:24:58.723Z,34.08
2023-02-11T04:25:30.514Z,33.30
2023-02-11T04:26:02.231Z,32.35
2023-02-11T04:26:33.801Z,33.08
2023-02-11T04:27:05.504Z,32.70
2023-02-11T04:27:37.384Z,32.30
2023-02-11T04:28:09.053Z,31.90
2023-02-11T04:28:40.798Z,32.70
2023-02-11T04:29:12.518Z,32.25
2023-02-11T04:29:44.094Z,31.77
2023-02-11T04:30:15.682Z,31.92
2023-02-11T04:30:48.915Z,32.28
2023-02-11T04:31:20.671Z,34.22
2023-02-11T04:31:52.621Z,32.05
2023-02-11T04:32:24.308Z,31.25
2023-02-11T04:32:56.068Z,32.55
2023-02-11T04:33:27.843Z,32.95
2023-02-11T04:33:59.429Z,33.58
2023-02-11T04:34:31.388Z,32.58
2023-02-11T04:35:03.669Z,32.38
2023-02-11T04:35:35.274Z,32.42
2023-02-11T04:36:07.344Z,32.90
2023-02-11T04:36:38.966Z,32.30
2023-02-11T04:37:10.538Z,32.63
2023-02-11T04:37:42.108Z,32.47
2023-02-11T04:38:14.362Z,33.05
2023-02-11T04:38:45.953Z,32.38
2023-02-11T04:39:17.520Z,32.58
2023-02-11T04:39:49.137Z,32.00
2023-02-11T04:40:20.799Z,31.75
2023-02-11T04:40:52.455Z,32.20
2023-02-11T04:41:24.053Z,32.92
2023-02-11T04:41:55.703Z,31.95
2023-02-11T04:42:27.821Z,33.95
2023-02-11T04:42:59.470Z,32.90
2023-02-11T04:43:31.056Z,32.97
2023-02-11T04:44:02.636Z,31.40
2023-02-11T04:44:34.378Z,33.15
2023-02-11T04:45:07.877Z,32.28
2023-02-11T04:45:39.510Z,32.28
2023-02-11T04:46:11.357Z,32.15
2023-02-11T04:46:42.993Z,33.03
2023-02-11T04:47:15.593Z,33.10
2023-02-11T04:47:47.232Z,32.83
2023-02-11T04:48:18.846Z,32.08
2023-02-11T04:48:50.596Z,32.03
2023-02-11T04:49:22.185Z,33.22
2023-02-11T04:49:53.862Z,32.45
2023-02-11T04:50:25.724Z,32.38
2023-02-11T04:50:57.370Z,32.80
2023-02-11T04:51:29.030Z,33.95
2023-02-11T04:52:00.642Z,30.60
2023-02-11T04:52:32.296Z,33.70
2023-02-11T04:53:03.871Z,34.42
2023-02-11T04:53:35.522Z,32.50
2023-02-11T04:54:07.239Z,33.25
2023-02-11T04:54:39.068Z,32.72
2023-02-11T04:55:10.700Z,32.67
2023-02-11T04:55:42.336Z,32.47
2023-02-11T04:56:14.178Z,33.05
2023-02-11T04:56:46.036Z,34.38
2023-02-11T04:57:17.686Z,32.83
2023-02-11T04:57:49.305Z,33.10
2023-02-11T04:58:21.162Z,35.08
2023-02-11T04:58:52.772Z,36.70
2023-02-11T04:59:24.853Z,37.38
2023-02-11T04:59:56.449Z,35.47
2023-02-11T05:00:28.057Z,35.08
2023-02-11T05:01:10.773Z,34.15
2023-02-11T05:01:42.878Z,33.03
2023-02-11T05:02:14.550Z,31.95
2023-02-11T05:02:46.156Z,33.28
2023-02-11T05:03:17.954Z,32.47
2023-02-11T05:03:49.644Z,32.83
2023-02-11T05:04:21.300Z,32.47
2023-02-11T05:04:52.984Z,31.73
2023-02-11T05:05:24.690Z,33.58
2023-02-11T05:05:56.418Z,33.22
2023-02-11T05:06:28.091Z,32.63
2023-02-11T05:06:59.707Z,32.90
2023-02-11T05:07:31.419Z,31.45
2023-02-11T05:08:03.092Z,32.53
2023-02-11T05:08:34.737Z,31.05
2023-02-11T05:09:06.462Z,32.03
2023-02-11T05:09:38.049Z,32.83
2023-02-11T05:10:09.775Z,31.23
2023-02-11T05:10:47.168Z,30.85
2023-02-11T05:11:22.143Z,31.77
2023-02-11T05:11:53.758Z,31.33
2023-02-11T05:12:25.436Z,30.83
2023-02-11T05:12:57.017Z,31.10
2023-02-11T05:13:29.347Z,31.45
2023-02-11T05:14:01.361Z,32.28
2023-02-11T05:14:33.403Z,31.70
2023-02-11T05:15:05.532Z,31.98
2023-02-11T05:15:37.309Z,31.90
2023-02-11T05:16:09.266Z,32.08
2023-02-11T05:16:40.893Z,32.30
2023-02-11T05:17:12.495Z,30.77
2023-02-11T05:17:44.087Z,30.10
2023-02-11T05:18:15.952Z,30.83
2023-02-11T05:18:47.641Z,32.55
2023-02-11T05:19:19.489Z,32.47
2023-02-11T05:19:51.099Z,33.45
2023-02-11T05:20:22.779Z,33.53
2023-02-11T05:20:54.392Z,31.95
2023-02-11T05:21:26.395Z,32.10
2023-02-11T05:22:03.011Z,34.15
2023-02-11T05:22:35.210Z,32.53
2023-02-11T05:23:06.900Z,32.78
2023-02-11T05:23:39.816Z,32.40
2023-02-11T05:24:11.399Z,30.90
2023-02-11T05:24:43.024Z,30.98
2023-02-11T05:25:14.782Z,31.80
2023-02-11T05:25:46.371Z,31.80
2023-02-11T05:26:18.406Z,31.55
2023-02-11T05:26:50.151Z,32.95
2023-02-11T05:27:21.770Z,32.22
2023-02-11T05:27:53.383Z,31.58
2023-02-11T05:28:25.055Z,32.10
2023-02-11T05:28:56.773Z,30.58
2023-02-11T05:29:28.659Z,31.77
2023-02-11T05:30:00.282Z,31.50
2023-02-11T05:30:32.077Z,31.73
2023-02-11T05:31:04.300Z,31.48
2023-02-11T05:31:35.961Z,30.33
2023-02-11T05:32:09.079Z,32.03
2023-02-11T05:32:40.702Z,32.65
2023-02-11T05:33:12.333Z,30.58
2023-02-11T05:33:44.039Z,30.08
2023-02-11T05:34:15.686Z,31.42
2023-02-11T05:34:47.296Z,31.88
2023-02-11T05:35:19.050Z,32.30
2023-02-11T05:35:50.980Z,31.98
2023-02-11T05:36:22.784Z,31.50
2023-02-11T05:36:54.422Z,31.48
2023-02-11T05:37:26.166Z,31.45
2023-02-11T05:37:57.881Z,32.28
2023-02-11T05:38:29.530Z,31.83
2023-02-11T05:39:01.144Z,32.03
2023-02-11T05:39:32.775Z,32.53
2023-02-11T05:40:05.269Z,32.65
2023-02-11T05:40:37.262Z,33.92
2023-02-11T05:41:09.526Z,32.65
2023-02-11T05:41:41.099Z,33.25
2023-02-11T05:42:13.931Z,32.90
2023-02-11T05:42:45.605Z,32.33
2023-02-11T05:43:17.260Z,32.05
2023-02-11T05:43:52.693Z,32.45
2023-02-11T05:44:24.515Z,32.70
2023-02-11T05:44:56.114Z,32.35
2023-02-11T05:45:28.275Z,36.42
2023-02-11T05:45:59.905Z,39.95
2023-02-11T05:46:31.540Z,44.00
2023-02-11T05:47:03.435Z,43.97
2023-02-11T05:47:35.217Z,44.72
2023-02-11T05:48:06.922Z,40.63
2023-02-11T05:48:38.496Z,45.47
2023-02-11T05:49:10.154Z,39.75
2023-02-11T05:49:41.871Z,35.65
2023-02-11T05:50:13.473Z,36.92
2023-02-11T05:50:45.406Z,40.65
2023-02-11T05:51:17.095Z,43.70
2023-02-11T05:51:49.059Z,41.28
2023-02-11T05:52:21.721Z,36.35
2023-02-11T05:52:53.354Z,35.88
2023-02-11T05:53:25.126Z,38.50
2023-02-11T05:53:56.883Z,36.83
2023-02-11T05:54:28.459Z,38.35
2023-02-11T05:55:00.097Z,38.42
2023-02-11T05:55:31.825Z,36.38
2023-02-11T05:56:03.620Z,38.80
2023-02-11T05:56:35.223Z,35.15
2023-02-11T05:57:06.901Z,33.58
2023-02-11T05:57:38.588Z,34.83
2023-02-11T05:58:10.355Z,32.83
2023-02-11T05:58:42.314Z,33.15
2023-02-11T05:59:14.983Z,32.70
2023-02-11T05:59:46.574Z,35.45
2023-02-11T06:00:18.391Z,45.30
2023-02-11T06:00:50.146Z,46.08
2023-02-11T06:01:21.786Z,48.10
2023-02-11T06:01:53.411Z,48.15
2023-02-11T06:02:25.052Z,45.92
2023-02-11T06:02:56.716Z,44.63
2023-02-11T06:03:28.465Z,43.38
2023-02-11T06:04:00.262Z,42.08
2023-02-11T06:04:31.934Z,40.38
2023-02-11T06:05:03.594Z,39.05
2023-02-11T06:05:35.237Z,36.97
2023-02-11T06:06:13.000Z,35.60
2023-02-11T06:06:44.615Z,37.88
2023-02-11T06:07:17.496Z,39.03
2023-02-11T06:07:49.108Z,35.90
2023-02-11T06:08:20.708Z,37.90
2023-02-11T06:08:52.351Z,38.83
2023-02-11T06:09:24.015Z,38.28
2023-02-11T06:09:55.681Z,35.47
2023-02-11T06:10:27.652Z,34.83
2023-02-11T06:10:59.275Z,34.65
2023-02-11T06:11:30.914Z,32.97
2023-02-11T06:12:02.546Z,33.78
2023-02-11T06:12:34.380Z,31.88
2023-02-11T06:13:05.959Z,31.25
2023-02-11T06:13:37.606Z,31.95
2023-02-11T06:14:10.015Z,32.45
2023-02-11T06:14:42.119Z,32.65
2023-02-11T06:15:13.778Z,35.22
2023-02-11T06:15:45.816Z,33.22
2023-02-11T06:16:17.486Z,34.55
2023-02-11T06:16:49.207Z,35.10
2023-02-11T06:17:20.918Z,34.38
2023-02-11T06:17:52.570Z,34.95
2023-02-11T06:18:24.318Z,35.58
2023-02-11T06:18:56.009Z,35.25
2023-02-11T06:19:27.681Z,35.83
2023-02-11T06:20:02.923Z,33.60
2023-02-11T06:20:34.873Z,33.58
2023-02-11T06:21:08.358Z,33.85
2023-02-11T06:21:44.162Z,33.85
2023-02-11T06:22:16.002Z,32.20
2023-02-11T06:22:47.611Z,30.08
2023-02-11T06:23:19.762Z,32.33
2023-02-11T06:23:51.338Z,32.65
2023-02-11T06:24:47.653Z,32.83
2023-02-11T06:25:15.217Z,30.83
2023-02-11T06:25:46.927Z,33.08
2023-02-11T06:26:21.345Z,32.55
2023-02-11T06:26:52.979Z,33.08
2023-02-11T06:27:24.701Z,33.60
2023-02-11T06:27:56.409Z,33.42
2023-02-11T06:28:28.916Z,33.85
2023-02-11T06:29:00.985Z,34.65
2023-02-11T06:29:32.630Z,36.38
2023-02-11T06:30:05.628Z,35.47
2023-02-11T06:30:37.819Z,35.92
2023-02-11T06:31:10.060Z,38.10
2023-02-11T06:31:41.838Z,38.75
2023-02-11T06:32:37.016Z,36.03
2023-02-11T06:33:05.697Z,35.05
2023-02-11T06:33:38.541Z,35.63
2023-02-11T06:34:10.751Z,34.30
2023-02-11T06:34:42.312Z,37.35
2023-02-11T06:35:14.881Z,36.72
2023-02-11T06:35:46.665Z,37.13
2023-02-11T06:36:20.852Z,37.47
2023-02-11T06:36:52.456Z,38.70
2023-02-11T06:37:24.092Z,37.83
2023-02-11T06:37:55.781Z,36.95
2023-02-11T06:38:27.402Z,37.70
2023-02-11T06:38:59.305Z,40.15
2023-02-11T06:39:30.927Z,37.50
2023-02-11T06:40:02.518Z,38.05
2023-02-11T06:40:34.171Z,35.67
2023-02-11T06:41:05.817Z,36.63
2023-02-11T06:41:37.900Z,34.80
2023-02-11T06:42:10.088Z,34.80
2023-02-11T06:42:42.029Z,33.88
2023-02-11T06:43:13.633Z,34.28
2023-02-11T06:43:45.271Z,35.60
2023-02-11T06:44:17.162Z,36.13
2023-02-11T06:44:48.729Z,36.20
2023-02-11T06:45:20.711Z,36.65
2023-02-11T06:45:54.504Z,39.20
2023-02-11T06:46:26.551Z,36.17
2023-02-11T06:46:58.305Z,36.78
2023-02-11T06:47:29.936Z,36.17
2023-02-11T06:48:01.560Z,37.45
2023-02-11T06:48:33.672Z,36.08
2023-02-11T06:49:05.285Z,34.22
2023-02-11T06:49:37.053Z,36.13
2023-02-11T06:50:12.119Z,34.53
2023-02-11T06:50:43.731Z,35.20
2023-02-11T06:51:17.359Z,34.38
2023-02-11T06:51:48.965Z,33.17
2023-02-11T06:52:20.573Z,32.92
2023-02-11T06:52:52.303Z,34.33
2023-02-11T06:53:23.995Z,37.85
2023-02-11T06:53:55.644Z,38.33
2023-02-11T06:54:27.315Z,35.53
2023-02-11T06:54:58.880Z,38.17
2023-02-11T06:55:30.552Z,39.63
2023-02-11T06:56:07.573Z,39.03
2023-02-11T06:56:42.662Z,37.70
2023-02-11T06:57:14.256Z,36.75
2023-02-11T06:57:45.872Z,36.95
2023-02-11T06:58:17.490Z,36.17
2023-02-11T06:58:56.080Z,38.78
2023-02-11T06:59:27.739Z,36.58
2023-02-11T06:59:59.545Z,35.58
2023-02-11T07:00:31.192Z,33.53
2023-02-11T07:01:07.816Z,34.33
2023-02-11T07:01:39.468Z,34.83
2023-02-11T07:02:11.270Z,33.20
2023-02-11T07:02:43.042Z,34.00
2023-02-11T07:03:14.695Z,34.10
2023-02-11T07:03:47.145Z,33.33
2023-02-11T07:04:19.433Z,31.85
2023-02-11T07:04:51.049Z,32.92
2023-02-11T07:05:22.732Z,33.08
2023-02-11T07:05:54.299Z,34.20
2023-02-11T07:06:28.101Z,32.80
2023-02-11T07:06:59.860Z,34.28
2023-02-11T07:07:34.130Z,33.58
2023-02-11T07:08:06.145Z,33.13
2023-02-11T07:08:38.553Z,33.05
2023-02-11T07:09:10.249Z,32.80
2023-02-11T07:09:41.991Z,34.63
2023-02-11T07:10:13.665Z,34.30
2023-02-11T07:10:45.281Z,34.78
2023-02-11T07:11:20.624Z,36.97
2023-02-11T07:11:52.232Z,36.35
2023-02-11T07:12:23.895Z,39.28
2023-02-11T07:12:58.382Z,39.13
2023-02-11T07:13:30.321Z,37.25
2023-02-11T07:14:08.491Z,36.63
2023-02-11T07:14:40.446Z,32.58
2023-02-11T07:15:12.334Z,33.35
2023-02-11T07:15:44.120Z,33.17
2023-02-11T07:16:18.184Z,33.55
2023-02-11T07:16:49.782Z,35.35
2023-02-11T07:17:21.401Z,37.13
2023-02-11T07:17:53.045Z,36.50
2023-02-11T07:18:24.738Z,35.70
2023-02-11T07:18:56.313Z,34.03
2023-02-11T07:19:27.923Z,35.33
2023-02-11T07:19:59.531Z,34.75
2023-02-11T07:20:31.104Z,34.45
2023-02-11T07:21:10.652Z,32.92
2023-02-11T07:21:42.228Z,32.15
2023-02-11T07:22:13.917Z,32.03
2023-02-11T07:22:45.506Z,31.35
2023-02-11T07:23:17.154Z,31.67
2023-02-11T07:23:49.063Z,33.15
2023-02-11T07:24:20.836Z,32.75
2023-02-11T07:24:52.448Z,33.65
2023-02-11T07:25:24.083Z,33.78
2023-02-11T07:25:55.807Z,34.17
2023-02-11T07:26:29.058Z,33.67
2023-02-11T07:27:00.691Z,36.17